Etusivu
METAR-TAF:

METAR-TAF

Lentoasemat :

Norne Fpso, Norja

Öljynporauslautta

Leveyspiiri: 66-01-48N, Pituuspiiri: 008-04-48E, korkeus merenpinnasta: 10 m

Tämänhetkinen sää

Tämä raportti tehtiin 40 minuuttia sitten, kello 06.50 UTC
Tuuli 21 kn idästä
Lämpötila 3°C
Kosteus 75%
Ilmanpaine 983 hPa
Näkyvyys 10 km tai enemmän
Muutamia pilviä 2500 ft:n korkeudessa

METAR: ENNE 130650Z 08021KT 9999 FEW025 03/M01 Q0983 W///S4

Aika: 08:30 (07:30 UTC)

Sääennuste

Tämä raportti tehtiin 2 tuntia ja 30 minuuttia sitten, kello 05.00 UTC
Ennuste voimassa 13. päivästä klo 07 UTC - 13. päivään klo 15 UTC
Tuuli 20 kn idästä
Näkyvyys 10 km tai enemmän
Hajanaisia pilviä 2000 ft:n korkeudessa

TAF: ENNE 130500Z 1307/1315 08020KT 9999 SCT020

Säähavainnot ja -ennusteet yli 4000 lentoasemalta (METAR- ja TAF-raportit).

Käytössä olevat sääasemat on merkitty karttaan keltaisilla ja punaisilla pisteillä.

Aseta hiiri pisteen päälle nähdäksesi sääaseman nimen.

Klikkaa sitten nähdäksesi säähavainnot ja -ennusteet.

Kartan vaihtaminen: klikkaa mustalla rastilla varustettuja vihreitä pisteitä, niin voit zoomata sisään; viivalla varustettua vihreää pistettä, niin voit zoomata ulos tai vihreitä nuolia, niin pääset viereisille kartoille.


METAR-TAF: